sensor_id;sensor_type;location;lat;lon;timestamp;temperature;humidity
74792;SHT30;63319;46.046;17.802;2023-09-19T00:02:56;28.43;51.48
74792;SHT30;63319;46.046;17.802;2023-09-19T00:06:02;28.38;51.51
74792;SHT30;63319;46.046;17.802;2023-09-19T00:09:07;28.43;51.47
74792;SHT30;63319;46.046;17.802;2023-09-19T00:12:22;28.43;51.55
74792;SHT30;63319;46.046;17.802;2023-09-19T00:15:26;28.40;51.49
74792;SHT30;63319;46.046;17.802;2023-09-19T00:18:31;28.40;51.54
74792;SHT30;63319;46.046;17.802;2023-09-19T00:21:37;28.38;51.44
74792;SHT30;63319;46.046;17.802;2023-09-19T00:24:40;28.38;51.42
74792;SHT30;63319;46.046;17.802;2023-09-19T00:27:46;28.38;51.50
74792;SHT30;63319;46.046;17.802;2023-09-19T00:30:54;28.37;51.45
74792;SHT30;63319;46.046;17.802;2023-09-19T00:33:58;28.37;51.40
74792;SHT30;63319;46.046;17.802;2023-09-19T00:37:03;28.37;51.51
74792;SHT30;63319;46.046;17.802;2023-09-19T00:40:07;28.34;51.51
74792;SHT30;63319;46.046;17.802;2023-09-19T00:43:14;28.35;51.40
74792;SHT30;63319;46.046;17.802;2023-09-19T00:46:18;28.34;51.52
74792;SHT30;63319;46.046;17.802;2023-09-19T00:49:22;28.29;51.54
74792;SHT30;63319;46.046;17.802;2023-09-19T00:52:25;28.35;51.45
74792;SHT30;63319;46.046;17.802;2023-09-19T00:55:30;28.34;51.56
74792;SHT30;63319;46.046;17.802;2023-09-19T00:58:36;28.33;51.59
74792;SHT30;63319;46.046;17.802;2023-09-19T01:01:40;28.33;51.53
74792;SHT30;63319;46.046;17.802;2023-09-19T01:04:44;28.31;51.60
74792;SHT30;63319;46.046;17.802;2023-09-19T01:07:48;28.34;51.57
74792;SHT30;63319;46.046;17.802;2023-09-19T01:14:31;28.31;51.51
74792;SHT30;63319;46.046;17.802;2023-09-19T01:17:56;28.28;51.66
74792;SHT30;63319;46.046;17.802;2023-09-19T01:21:11;28.29;51.70
74792;SHT30;63319;46.046;17.802;2023-09-19T01:30:56;28.29;51.54
74792;SHT30;63319;46.046;17.802;2023-09-19T01:34:03;28.28;51.60
74792;SHT30;63319;46.046;17.802;2023-09-19T01:37:10;28.27;51.59
74792;SHT30;63319;46.046;17.802;2023-09-19T01:40:18;28.28;51.66
74792;SHT30;63319;46.046;17.802;2023-09-19T01:43:30;28.25;51.63
74792;SHT30;63319;46.046;17.802;2023-09-19T01:46:39;28.25;51.63
74792;SHT30;63319;46.046;17.802;2023-09-19T01:50:01;28.27;51.70
74792;SHT30;63319;46.046;17.802;2023-09-19T01:53:10;28.25;51.58
74792;SHT30;63319;46.046;17.802;2023-09-19T01:56:23;28.24;51.55
74792;SHT30;63319;46.046;17.802;2023-09-19T01:59:34;28.22;51.60
74792;SHT30;63319;46.046;17.802;2023-09-19T02:02:40;28.22;51.71
74792;SHT30;63319;46.046;17.802;2023-09-19T02:05:49;28.22;51.64
74792;SHT30;63319;46.046;17.802;2023-09-19T02:08:54;28.21;51.71
74792;SHT30;63319;46.046;17.802;2023-09-19T02:11:58;28.18;51.57
74792;SHT30;63319;46.046;17.802;2023-09-19T02:15:02;28.21;51.45
74792;SHT30;63319;46.046;17.802;2023-09-19T02:18:05;28.17;51.60
74792;SHT30;63319;46.046;17.802;2023-09-19T02:21:10;28.18;51.61
74792;SHT30;63319;46.046;17.802;2023-09-19T02:24:15;28.17;51.66
74792;SHT30;63319;46.046;17.802;2023-09-19T02:27:18;28.14;51.66
74792;SHT30;63319;46.046;17.802;2023-09-19T02:30:22;28.17;51.55
74792;SHT30;63319;46.046;17.802;2023-09-19T02:33:28;28.16;51.64
74792;SHT30;63319;46.046;17.802;2023-09-19T02:36:36;28.16;51.56
74792;SHT30;63319;46.046;17.802;2023-09-19T02:39:42;28.13;51.33
74792;SHT30;63319;46.046;17.802;2023-09-19T02:42:48;28.13;51.76
74792;SHT30;63319;46.046;17.802;2023-09-19T02:45:53;28.10;51.76
74792;SHT30;63319;46.046;17.802;2023-09-19T02:48:59;28.11;51.76
74792;SHT30;63319;46.046;17.802;2023-09-19T02:52:03;28.10;51.60
74792;SHT30;63319;46.046;17.802;2023-09-19T02:55:07;28.10;51.65
74792;SHT30;63319;46.046;17.802;2023-09-19T02:58:12;28.08;51.66
74792;SHT30;63319;46.046;17.802;2023-09-19T03:01:17;28.08;51.69
74792;SHT30;63319;46.046;17.802;2023-09-19T03:04:22;28.07;51.75
74792;SHT30;63319;46.046;17.802;2023-09-19T03:07:25;28.06;51.66
74792;SHT30;63319;46.046;17.802;2023-09-19T03:10:29;28.08;51.49
74792;SHT30;63319;46.046;17.802;2023-09-19T03:13:34;28.07;51.63
74792;SHT30;63319;46.046;17.802;2023-09-19T03:16:39;28.06;51.78
74792;SHT30;63319;46.046;17.802;2023-09-19T03:19:43;28.03;51.79
74792;SHT30;63319;46.046;17.802;2023-09-19T03:22:47;28.04;51.77
74792;SHT30;63319;46.046;17.802;2023-09-19T03:25:51;28.04;51.53
74792;SHT30;63319;46.046;17.802;2023-09-19T03:28:55;28.04;51.46
74792;SHT30;63319;46.046;17.802;2023-09-19T03:31:59;28.01;51.71
74792;SHT30;63319;46.046;17.802;2023-09-19T03:35:03;28.00;51.41
74792;SHT30;63319;46.046;17.802;2023-09-19T03:38:10;28.00;51.65
74792;SHT30;63319;46.046;17.802;2023-09-19T03:41:13;27.97;51.74
74792;SHT30;63319;46.046;17.802;2023-09-19T03:44:21;27.97;51.43
74792;SHT30;63319;46.046;17.802;2023-09-19T03:47:24;27.96;51.47
74792;SHT30;63319;46.046;17.802;2023-09-19T03:50:29;27.98;51.82
74792;SHT30;63319;46.046;17.802;2023-09-19T03:53:32;27.96;51.82
74792;SHT30;63319;46.046;17.802;2023-09-19T03:56:35;27.96;51.89
74792;SHT30;63319;46.046;17.802;2023-09-19T03:59:39;27.94;52.22
74792;SHT30;63319;46.046;17.802;2023-09-19T04:02:45;27.94;52.23
74792;SHT30;63319;46.046;17.802;2023-09-19T04:05:49;27.93;52.29
74792;SHT30;63319;46.046;17.802;2023-09-19T04:08:52;27.93;52.27
74792;SHT30;63319;46.046;17.802;2023-09-19T04:11:55;27.93;52.29
74792;SHT30;63319;46.046;17.802;2023-09-19T04:14:59;27.96;52.26
74792;SHT30;63319;46.046;17.802;2023-09-19T04:18:02;27.93;52.25
74792;SHT30;63319;46.046;17.802;2023-09-19T04:21:06;27.93;52.20
74792;SHT30;63319;46.046;17.802;2023-09-19T04:24:10;27.90;52.24
74792;SHT30;63319;46.046;17.802;2023-09-19T04:27:13;27.92;52.19
74792;SHT30;63319;46.046;17.802;2023-09-19T04:30:17;27.92;52.16
74792;SHT30;63319;46.046;17.802;2023-09-19T04:33:20;27.90;52.27
74792;SHT30;63319;46.046;17.802;2023-09-19T04:36:24;27.89;52.32
74792;SHT30;63319;46.046;17.802;2023-09-19T04:39:38;27.92;52.30
74792;SHT30;63319;46.046;17.802;2023-09-19T04:42:41;27.90;52.23
74792;SHT30;63319;46.046;17.802;2023-09-19T04:45:44;27.90;52.36
74792;SHT30;63319;46.046;17.802;2023-09-19T04:48:49;27.90;52.32
74792;SHT30;63319;46.046;17.802;2023-09-19T04:51:52;27.89;52.36
74792;SHT30;63319;46.046;17.802;2023-09-19T04:54:56;27.90;52.32
74792;SHT30;63319;46.046;17.802;2023-09-19T04:58:00;27.87;52.18
74792;SHT30;63319;46.046;17.802;2023-09-19T05:01:03;27.89;51.74
74792;SHT30;63319;46.046;17.802;2023-09-19T05:04:07;27.89;51.98
74792;SHT30;63319;46.046;17.802;2023-09-19T05:07:14;27.90;51.95
74792;SHT30;63319;46.046;17.802;2023-09-19T05:10:27;27.90;52.25
74792;SHT30;63319;46.046;17.802;2023-09-19T05:13:30;27.89;52.16
74792;SHT30;63319;46.046;17.802;2023-09-19T05:16:34;27.87;52.07
74792;SHT30;63319;46.046;17.802;2023-09-19T05:19:38;27.87;51.97
74792;SHT30;63319;46.046;17.802;2023-09-19T05:22:42;27.89;51.81
74792;SHT30;63319;46.046;17.802;2023-09-19T05:25:46;27.90;51.71
74792;SHT30;63319;46.046;17.802;2023-09-19T05:28:49;27.89;51.69
74792;SHT30;63319;46.046;17.802;2023-09-19T05:31:52;27.92;51.59
74792;SHT30;63319;46.046;17.802;2023-09-19T05:34:58;27.87;51.65
74792;SHT30;63319;46.046;17.802;2023-09-19T05:38:01;27.87;51.63
74792;SHT30;63319;46.046;17.802;2023-09-19T05:41:06;27.87;51.67
74792;SHT30;63319;46.046;17.802;2023-09-19T05:44:10;27.85;51.63
74792;SHT30;63319;46.046;17.802;2023-09-19T05:47:13;27.85;51.65
74792;SHT30;63319;46.046;17.802;2023-09-19T05:50:17;27.83;51.68
74792;SHT30;63319;46.046;17.802;2023-09-19T05:53:33;27.83;51.65
74792;SHT30;63319;46.046;17.802;2023-09-19T05:56:37;27.83;51.84
74792;SHT30;63319;46.046;17.802;2023-09-19T05:59:40;27.82;51.68
74792;SHT30;63319;46.046;17.802;2023-09-19T06:02:55;27.82;51.84
74792;SHT30;63319;46.046;17.802;2023-09-19T06:06:01;27.80;51.87
74792;SHT30;63319;46.046;17.802;2023-09-19T06:09:07;27.79;51.95
74792;SHT30;63319;46.046;17.802;2023-09-19T06:12:11;27.79;52.10
74792;SHT30;63319;46.046;17.802;2023-09-19T06:15:16;27.79;52.16
74792;SHT30;63319;46.046;17.802;2023-09-19T06:18:22;27.71;52.50
74792;SHT30;63319;46.046;17.802;2023-09-19T06:21:40;27.63;52.39
74792;SHT30;63319;46.046;17.802;2023-09-19T06:24:45;27.58;52.66
74792;SHT30;63319;46.046;17.802;2023-09-19T06:27:59;27.52;52.70
74792;SHT30;63319;46.046;17.802;2023-09-19T06:31:20;27.49;52.68
74792;SHT30;63319;46.046;17.802;2023-09-19T06:34:26;27.50;52.39
74792;SHT30;63319;46.046;17.802;2023-09-19T06:37:30;27.55;52.29
74792;SHT30;63319;46.046;17.802;2023-09-19T06:40:37;27.53;52.07
74792;SHT30;63319;46.046;17.802;2023-09-19T06:43:41;27.53;51.90
74792;SHT30;63319;46.046;17.802;2023-09-19T06:46:46;27.48;51.68
74792;SHT30;63319;46.046;17.802;2023-09-19T06:49:55;27.50;51.59
74792;SHT30;63319;46.046;17.802;2023-09-19T06:52:59;27.49;51.48
74792;SHT30;63319;46.046;17.802;2023-09-19T06:56:04;27.55;51.22
74792;SHT30;63319;46.046;17.802;2023-09-19T06:59:09;27.52;51.10
74792;SHT30;63319;46.046;17.802;2023-09-19T07:02:12;27.55;51.04
74792;SHT30;63319;46.046;17.802;2023-09-19T07:05:22;27.50;50.80
74792;SHT30;63319;46.046;17.802;2023-09-19T07:08:27;27.50;51.12
74792;SHT30;63319;46.046;17.802;2023-09-19T07:11:51;27.49;50.89
74792;SHT30;63319;46.046;17.802;2023-09-19T07:15:00;27.46;50.68
74792;SHT30;63319;46.046;17.802;2023-09-19T07:18:04;27.46;50.59
74792;SHT30;63319;46.046;17.802;2023-09-19T07:21:07;27.38;50.58
74792;SHT30;63319;46.046;17.802;2023-09-19T07:24:18;27.32;50.64
74792;SHT30;63319;46.046;17.802;2023-09-19T07:27:32;27.37;50.24
74792;SHT30;63319;46.046;17.802;2023-09-19T07:30:37;27.37;50.33
74792;SHT30;63319;46.046;17.802;2023-09-19T07:33:40;27.35;50.32
74792;SHT30;63319;46.046;17.802;2023-09-19T07:36:46;27.34;50.39
74792;SHT30;63319;46.046;17.802;2023-09-19T07:39:50;27.27;50.43
74792;SHT30;63319;46.046;17.802;2023-09-19T07:42:53;27.28;50.83
74792;SHT30;63319;46.046;17.802;2023-09-19T07:45:57;27.28;50.80
74792;SHT30;63319;46.046;17.802;2023-09-19T07:49:03;27.24;50.65
74792;SHT30;63319;46.046;17.802;2023-09-19T07:52:09;27.21;50.57
74792;SHT30;63319;46.046;17.802;2023-09-19T07:55:13;26.70;51.75
74792;SHT30;63319;46.046;17.802;2023-09-19T07:58:20;26.94;51.11
74792;SHT30;63319;46.046;17.802;2023-09-19T08:01:30;27.16;50.57
74792;SHT30;63319;46.046;17.802;2023-09-19T08:04:33;27.28;50.10
74792;SHT30;63319;46.046;17.802;2023-09-19T08:07:37;27.28;50.09
74792;SHT30;63319;46.046;17.802;2023-09-19T08:10:41;27.27;50.36
74792;SHT30;63319;46.046;17.802;2023-09-19T08:13:49;27.28;50.43
74792;SHT30;63319;46.046;17.802;2023-09-19T08:16:56;27.20;50.55
74792;SHT30;63319;46.046;17.802;2023-09-19T08:20:00;27.18;50.60
74792;SHT30;63319;46.046;17.802;2023-09-19T08:23:07;27.15;50.39
74792;SHT30;63319;46.046;17.802;2023-09-19T08:26:14;26.95;50.80
74792;SHT30;63319;46.046;17.802;2023-09-19T08:29:35;27.00;50.68
74792;SHT30;63319;46.046;17.802;2023-09-19T08:33:01;27.05;50.61
74792;SHT30;63319;46.046;17.802;2023-09-19T08:36:07;27.12;50.23
74792;SHT30;63319;46.046;17.802;2023-09-19T08:39:11;27.15;50.06
74792;SHT30;63319;46.046;17.802;2023-09-19T08:42:16;27.20;49.85
74792;SHT30;63319;46.046;17.802;2023-09-19T08:45:21;27.16;49.80
74792;SHT30;63319;46.046;17.802;2023-09-19T08:48:57;27.16;49.66
74792;SHT30;63319;46.046;17.802;2023-09-19T08:52:19;27.21;49.78
74792;SHT30;63319;46.046;17.802;2023-09-19T08:55:27;27.18;49.84
74792;SHT30;63319;46.046;17.802;2023-09-19T08:58:34;27.15;49.94
74792;SHT30;63319;46.046;17.802;2023-09-19T09:01:43;27.20;49.72
74792;SHT30;63319;46.046;17.802;2023-09-19T09:04:48;27.21;49.96
74792;SHT30;63319;46.046;17.802;2023-09-19T09:07:52;27.16;49.74
74792;SHT30;63319;46.046;17.802;2023-09-19T09:10:58;27.18;49.91
74792;SHT30;63319;46.046;17.802;2023-09-19T09:14:06;27.18;50.07
74792;SHT30;63319;46.046;17.802;2023-09-19T09:17:12;27.18;50.02
74792;SHT30;63319;46.046;17.802;2023-09-19T09:20:17;27.05;50.05
74792;SHT30;63319;46.046;17.802;2023-09-19T09:23:21;27.04;49.94
74792;SHT30;63319;46.046;17.802;2023-09-19T09:26:54;26.93;50.07
74792;SHT30;63319;46.046;17.802;2023-09-19T09:29:57;26.70;50.55
74792;SHT30;63319;46.046;17.802;2023-09-19T09:33:11;26.76;50.50
74792;SHT30;63319;46.046;17.802;2023-09-19T09:36:15;26.76;50.81
74792;SHT30;63319;46.046;17.802;2023-09-19T09:39:30;26.81;50.92
74792;SHT30;63319;46.046;17.802;2023-09-19T09:42:35;26.80;51.14
74792;SHT30;63319;46.046;17.802;2023-09-19T09:45:41;26.84;51.35
74792;SHT30;63319;46.046;17.802;2023-09-19T09:52:15;27.01;51.19
74792;SHT30;63319;46.046;17.802;2023-09-19T09:55:22;27.05;51.15
74792;SHT30;63319;46.046;17.802;2023-09-19T09:58:26;27.05;50.76
74792;SHT30;63319;46.046;17.802;2023-09-19T10:01:47;26.70;51.09
74792;SHT30;63319;46.046;17.802;2023-09-19T10:04:57;26.87;51.13
74792;SHT30;63319;46.046;17.802;2023-09-19T10:08:23;26.77;50.96
74792;SHT30;63319;46.046;17.802;2023-09-19T10:11:29;26.70;50.94
74792;SHT30;63319;46.046;17.802;2023-09-19T10:14:36;27.11;50.25
74792;SHT30;63319;46.046;17.802;2023-09-19T10:17:44;27.49;49.37
74792;SHT30;63319;46.046;17.802;2023-09-19T10:20:49;27.34;49.25
74792;SHT30;63319;46.046;17.802;2023-09-19T10:23:54;27.24;49.64
74792;SHT30;63319;46.046;17.802;2023-09-19T10:26:59;27.25;49.63
74792;SHT30;63319;46.046;17.802;2023-09-19T10:30:09;27.29;49.58
74792;SHT30;63319;46.046;17.802;2023-09-19T10:33:25;27.67;48.89
74792;SHT30;63319;46.046;17.802;2023-09-19T10:36:33;27.60;48.14
74792;SHT30;63319;46.046;17.802;2023-09-19T10:39:39;27.56;47.56
74792;SHT30;63319;46.046;17.802;2023-09-19T10:42:45;27.58;47.29
74792;SHT30;63319;46.046;17.802;2023-09-19T10:45:53;27.70;47.08
74792;SHT30;63319;46.046;17.802;2023-09-19T10:49:00;27.89;46.47
74792;SHT30;63319;46.046;17.802;2023-09-19T10:52:06;27.82;46.66
74792;SHT30;63319;46.046;17.802;2023-09-19T10:55:16;27.76;46.79
74792;SHT30;63319;46.046;17.802;2023-09-19T10:58:32;27.85;46.59
74792;SHT30;63319;46.046;17.802;2023-09-19T11:01:46;28.27;45.69
74792;SHT30;63319;46.046;17.802;2023-09-19T11:04:51;28.69;44.81
74792;SHT30;63319;46.046;17.802;2023-09-19T11:08:00;28.98;44.53
74792;SHT30;63319;46.046;17.802;2023-09-19T11:14:43;29.13;43.94
74792;SHT30;63319;46.046;17.802;2023-09-19T11:17:47;29.26;43.61
74792;SHT30;63319;46.046;17.802;2023-09-19T11:24:34;29.26;43.37
74792;SHT30;63319;46.046;17.802;2023-09-19T11:31:43;29.23;42.97
74792;SHT30;63319;46.046;17.802;2023-09-19T11:34:48;29.70;42.26
74792;SHT30;63319;46.046;17.802;2023-09-19T11:44:35;30.08;41.52
74792;SHT30;63319;46.046;17.802;2023-09-19T11:47:40;30.08;41.28
74792;SHT30;63319;46.046;17.802;2023-09-19T11:50:45;30.09;41.06
74792;SHT30;63319;46.046;17.802;2023-09-19T11:53:58;30.18;40.76
74792;SHT30;63319;46.046;17.802;2023-09-19T11:57:04;30.10;40.37
74792;SHT30;63319;46.046;17.802;2023-09-19T12:00:17;30.23;39.31
74792;SHT30;63319;46.046;17.802;2023-09-19T12:03:21;30.26;39.19
74792;SHT30;63319;46.046;17.802;2023-09-19T12:06:27;30.25;39.22
74792;SHT30;63319;46.046;17.802;2023-09-19T12:09:33;30.37;39.54
74792;SHT30;63319;46.046;17.802;2023-09-19T12:12:36;30.19;39.88
74792;SHT30;63319;46.046;17.802;2023-09-19T12:15:39;30.08;39.72
74792;SHT30;63319;46.046;17.802;2023-09-19T12:18:49;29.92;39.42
74792;SHT30;63319;46.046;17.802;2023-09-19T12:22:01;29.88;39.39
74792;SHT30;63319;46.046;17.802;2023-09-19T12:25:13;29.77;39.92
74792;SHT30;63319;46.046;17.802;2023-09-19T12:28:20;29.67;40.33
74792;SHT30;63319;46.046;17.802;2023-09-19T12:31:27;29.61;40.54
74792;SHT30;63319;46.046;17.802;2023-09-19T12:34:31;29.51;40.71
74792;SHT30;63319;46.046;17.802;2023-09-19T12:37:44;29.43;40.56
74792;SHT30;63319;46.046;17.802;2023-09-19T12:40:51;29.34;40.73
74792;SHT30;63319;46.046;17.802;2023-09-19T12:43:56;29.29;40.85
74792;SHT30;63319;46.046;17.802;2023-09-19T12:47:09;29.26;41.04
74792;SHT30;63319;46.046;17.802;2023-09-19T12:50:15;29.27;41.05
74792;SHT30;63319;46.046;17.802;2023-09-19T12:53:26;29.24;41.27
74792;SHT30;63319;46.046;17.802;2023-09-19T12:56:39;29.23;41.34
74792;SHT30;63319;46.046;17.802;2023-09-19T12:59:52;29.20;41.46
74792;SHT30;63319;46.046;17.802;2023-09-19T13:06:37;29.14;41.57
74792;SHT30;63319;46.046;17.802;2023-09-19T13:10:03;29.17;41.50
74792;SHT30;63319;46.046;17.802;2023-09-19T13:13:22;29.10;41.40
74792;SHT30;63319;46.046;17.802;2023-09-19T13:16:30;29.04;41.16
74792;SHT30;63319;46.046;17.802;2023-09-19T13:22:56;28.98;41.16
74792;SHT30;63319;46.046;17.802;2023-09-19T13:26:14;28.93;40.90
74792;SHT30;63319;46.046;17.802;2023-09-19T13:29:17;28.89;40.78
74792;SHT30;63319;46.046;17.802;2023-09-19T13:32:21;28.85;40.66
74792;SHT30;63319;46.046;17.802;2023-09-19T13:35:25;28.80;40.65
74792;SHT30;63319;46.046;17.802;2023-09-19T13:38:28;28.69;41.11
74792;SHT30;63319;46.046;17.802;2023-09-19T13:41:31;28.72;41.46
74792;SHT30;63319;46.046;17.802;2023-09-19T13:44:38;28.74;41.57
74792;SHT30;63319;46.046;17.802;2023-09-19T13:47:54;28.69;41.81
74792;SHT30;63319;46.046;17.802;2023-09-19T13:50:59;28.65;42.12
74792;SHT30;63319;46.046;17.802;2023-09-19T13:54:05;28.61;42.08
74792;SHT30;63319;46.046;17.802;2023-09-19T13:57:08;28.56;42.18
74792;SHT30;63319;46.046;17.802;2023-09-19T14:00:16;28.54;42.35
74792;SHT30;63319;46.046;17.802;2023-09-19T14:03:22;28.49;42.52
74792;SHT30;63319;46.046;17.802;2023-09-19T14:06:27;28.43;42.47
74792;SHT30;63319;46.046;17.802;2023-09-19T14:09:30;28.40;42.55
74792;SHT30;63319;46.046;17.802;2023-09-19T14:12:33;28.35;42.71
74792;SHT30;63319;46.046;17.802;2023-09-19T14:15:37;28.35;42.89
74792;SHT30;63319;46.046;17.802;2023-09-19T14:18:41;28.29;43.19
74792;SHT30;63319;46.046;17.802;2023-09-19T14:21:44;28.28;42.79
74792;SHT30;63319;46.046;17.802;2023-09-19T14:24:47;28.22;42.80
74792;SHT30;63319;46.046;17.802;2023-09-19T14:27:51;28.22;42.96
74792;SHT30;63319;46.046;17.802;2023-09-19T14:30:54;28.20;43.19
74792;SHT30;63319;46.046;17.802;2023-09-19T14:33:58;28.14;43.39
74792;SHT30;63319;46.046;17.802;2023-09-19T14:37:02;28.11;43.14
74792;SHT30;63319;46.046;17.802;2023-09-19T14:40:05;28.13;42.99
74792;SHT30;63319;46.046;17.802;2023-09-19T14:43:11;28.11;42.93
74792;SHT30;63319;46.046;17.802;2023-09-19T14:46:14;28.10;42.77
74792;SHT30;63319;46.046;17.802;2023-09-19T14:49:18;28.14;42.11
74792;SHT30;63319;46.046;17.802;2023-09-19T14:52:22;28.06;41.73
74792;SHT30;63319;46.046;17.802;2023-09-19T14:55:25;28.06;41.64
74792;SHT30;63319;46.046;17.802;2023-09-19T14:58:31;27.98;41.92
74792;SHT30;63319;46.046;17.802;2023-09-19T15:01:35;27.94;42.26
74792;SHT30;63319;46.046;17.802;2023-09-19T15:04:38;27.90;42.62
74792;SHT30;63319;46.046;17.802;2023-09-19T15:07:44;27.87;42.66
74792;SHT30;63319;46.046;17.802;2023-09-19T15:10:51;27.87;42.74
74792;SHT30;63319;46.046;17.802;2023-09-19T15:13:56;27.87;42.70
74792;SHT30;63319;46.046;17.802;2023-09-19T15:17:00;27.85;42.79
74792;SHT30;63319;46.046;17.802;2023-09-19T15:20:04;27.86;43.18
74792;SHT30;63319;46.046;17.802;2023-09-19T15:23:09;27.85;42.99
74792;SHT30;63319;46.046;17.802;2023-09-19T15:26:14;27.83;43.04
74792;SHT30;63319;46.046;17.802;2023-09-19T15:29:24;27.80;43.28
74792;SHT30;63319;46.046;17.802;2023-09-19T15:32:28;27.76;53.57
74792;SHT30;63319;46.046;17.802;2023-09-19T15:35:37;27.70;45.86
74792;SHT30;63319;46.046;17.802;2023-09-19T15:41:56;27.65;44.40
74792;SHT30;63319;46.046;17.802;2023-09-19T15:45:00;27.74;53.14
74792;SHT30;63319;46.046;17.802;2023-09-19T15:48:04;27.80;57.12
74792;SHT30;63319;46.046;17.802;2023-09-19T15:51:09;27.80;56.93
74792;SHT30;63319;46.046;17.802;2023-09-19T15:54:15;27.79;56.06
74792;SHT30;63319;46.046;17.802;2023-09-19T15:57:19;27.79;54.88
74792;SHT30;63319;46.046;17.802;2023-09-19T16:00:23;27.80;53.72
74792;SHT30;63319;46.046;17.802;2023-09-19T16:03:26;27.76;53.67
74792;SHT30;63319;46.046;17.802;2023-09-19T16:06:31;27.80;53.71
74792;SHT30;63319;46.046;17.802;2023-09-19T16:09:34;27.76;53.24
74792;SHT30;63319;46.046;17.802;2023-09-19T16:12:38;27.79;52.88
74792;SHT30;63319;46.046;17.802;2023-09-19T16:15:42;27.82;52.04
74792;SHT30;63319;46.046;17.802;2023-09-19T16:18:50;27.79;51.69
74792;SHT30;63319;46.046;17.802;2023-09-19T16:21:54;27.82;51.38
74792;SHT30;63319;46.046;17.802;2023-09-19T16:24:59;27.82;51.13
74792;SHT30;63319;46.046;17.802;2023-09-19T16:28:03;27.82;50.97
74792;SHT30;63319;46.046;17.802;2023-09-19T16:31:08;27.82;50.73
74792;SHT30;63319;46.046;17.802;2023-09-19T16:34:11;27.80;50.65
74792;SHT30;63319;46.046;17.802;2023-09-19T16:37:24;27.79;50.59
74792;SHT30;63319;46.046;17.802;2023-09-19T16:40:56;27.80;50.36
74792;SHT30;63319;46.046;17.802;2023-09-19T16:44:01;27.80;50.35
74792;SHT30;63319;46.046;17.802;2023-09-19T16:47:04;27.80;50.25
74792;SHT30;63319;46.046;17.802;2023-09-19T16:50:07;27.77;50.19
74792;SHT30;63319;46.046;17.802;2023-09-19T16:53:12;27.79;50.05
74792;SHT30;63319;46.046;17.802;2023-09-19T16:56:22;27.76;50.07
74792;SHT30;63319;46.046;17.802;2023-09-19T16:59:25;27.77;49.88
74792;SHT30;63319;46.046;17.802;2023-09-19T17:02:29;27.77;49.96
74792;SHT30;63319;46.046;17.802;2023-09-19T17:05:34;27.77;49.76
74792;SHT30;63319;46.046;17.802;2023-09-19T17:08:38;27.77;49.92
74792;SHT30;63319;46.046;17.802;2023-09-19T17:11:42;27.76;49.88
74792;SHT30;63319;46.046;17.802;2023-09-19T17:14:45;27.76;49.82
74792;SHT30;63319;46.046;17.802;2023-09-19T17:17:50;27.76;49.81
74792;SHT30;63319;46.046;17.802;2023-09-19T17:20:55;27.71;49.84
74792;SHT30;63319;46.046;17.802;2023-09-19T17:23:58;27.71;49.83
74792;SHT30;63319;46.046;17.802;2023-09-19T17:27:03;27.70;49.76
74792;SHT30;63319;46.046;17.802;2023-09-19T17:30:09;27.69;49.63
74792;SHT30;63319;46.046;17.802;2023-09-19T17:33:19;27.70;49.64
74792;SHT30;63319;46.046;17.802;2023-09-19T17:36:25;27.67;49.71
74792;SHT30;63319;46.046;17.802;2023-09-19T17:39:33;27.70;49.67
74792;SHT30;63319;46.046;17.802;2023-09-19T17:42:41;27.67;49.67
74792;SHT30;63319;46.046;17.802;2023-09-19T17:45:47;27.67;49.67
74792;SHT30;63319;46.046;17.802;2023-09-19T17:48:56;27.67;49.57
74792;SHT30;63319;46.046;17.802;2023-09-19T17:52:06;27.66;49.69
74792;SHT30;63319;46.046;17.802;2023-09-19T17:55:12;27.65;49.68
74792;SHT30;63319;46.046;17.802;2023-09-19T17:58:22;27.63;49.65
74792;SHT30;63319;46.046;17.802;2023-09-19T18:01:29;27.62;49.68
74792;SHT30;63319;46.046;17.802;2023-09-19T18:04:38;27.65;49.69
74792;SHT30;63319;46.046;17.802;2023-09-19T18:07:45;27.62;49.65
74792;SHT30;63319;46.046;17.802;2023-09-19T18:10:56;27.59;49.68
74792;SHT30;63319;46.046;17.802;2023-09-19T18:14:03;27.60;49.64
74792;SHT30;63319;46.046;17.802;2023-09-19T18:17:10;27.58;49.68
74792;SHT30;63319;46.046;17.802;2023-09-19T18:20:17;27.58;49.70
74792;SHT30;63319;46.046;17.802;2023-09-19T18:23:27;27.58;49.71
74792;SHT30;63319;46.046;17.802;2023-09-19T18:26:37;27.58;49.63
74792;SHT30;63319;46.046;17.802;2023-09-19T18:29:42;27.53;49.60
74792;SHT30;63319;46.046;17.802;2023-09-19T18:32:48;27.55;49.70
74792;SHT30;63319;46.046;17.802;2023-09-19T18:36:03;27.53;49.64
74792;SHT30;63319;46.046;17.802;2023-09-19T18:39:07;27.50;49.72
74792;SHT30;63319;46.046;17.802;2023-09-19T18:42:13;27.52;49.64
74792;SHT30;63319;46.046;17.802;2023-09-19T18:45:17;27.53;49.56
74792;SHT30;63319;46.046;17.802;2023-09-19T18:48:43;27.52;49.62
74792;SHT30;63319;46.046;17.802;2023-09-19T18:51:54;27.48;49.68
74792;SHT30;63319;46.046;17.802;2023-09-19T18:55:17;27.49;49.65
74792;SHT30;63319;46.046;17.802;2023-09-19T18:58:26;27.48;49.61
74792;SHT30;63319;46.046;17.802;2023-09-19T19:01:31;27.48;49.66
74792;SHT30;63319;46.046;17.802;2023-09-19T19:04:37;27.46;49.69
74792;SHT30;63319;46.046;17.802;2023-09-19T19:07:45;27.45;49.60
74792;SHT30;63319;46.046;17.802;2023-09-19T19:10:53;27.45;49.54
74792;SHT30;63319;46.046;17.802;2023-09-19T19:14:00;27.42;49.59
74792;SHT30;63319;46.046;17.802;2023-09-19T19:17:04;27.42;49.61
74792;SHT30;63319;46.046;17.802;2023-09-19T19:20:09;27.42;49.56
74792;SHT30;63319;46.046;17.802;2023-09-19T19:23:14;27.42;49.53
74792;SHT30;63319;46.046;17.802;2023-09-19T19:26:25;27.41;49.62
74792;SHT30;63319;46.046;17.802;2023-09-19T19:29:31;27.38;49.74
74792;SHT30;63319;46.046;17.802;2023-09-19T19:32:35;27.38;49.78
74792;SHT30;63319;46.046;17.802;2023-09-19T19:35:40;27.38;49.70
74792;SHT30;63319;46.046;17.802;2023-09-19T19:38:48;27.35;49.71
74792;SHT30;63319;46.046;17.802;2023-09-19T19:41:52;27.35;49.70
74792;SHT30;63319;46.046;17.802;2023-09-19T19:44:57;27.35;49.76
74792;SHT30;63319;46.046;17.802;2023-09-19T19:48:03;27.34;49.67
74792;SHT30;63319;46.046;17.802;2023-09-19T19:51:08;27.34;49.53
74792;SHT30;63319;46.046;17.802;2023-09-19T19:54:19;27.32;49.80
74792;SHT30;63319;46.046;17.802;2023-09-19T19:57:24;27.31;49.76
74792;SHT30;63319;46.046;17.802;2023-09-19T20:00:28;27.29;49.60
74792;SHT30;63319;46.046;17.802;2023-09-19T20:03:35;27.31;49.65